Time;durP1;ratioP1;P1;durP2;ratioP2;P2;SDS_P1;SDS_P2;PMS_P1;PMS_P2;Temp;Humidity;BMP_temperature;BMP_pressure;BME280_temperature;BME280_humidity;BME280_pressure;Samples;Min_cycle;Max_cycle;Signal;HPM_P1;HPM_P2
2023/04/27 00:00:59;;;;;;;5.53;4.83;;;4.50;99.90;;;;;;4974832;28;20303;-80
2023/04/27 00:03:27;;;;;;;5.27;4.67;;;4.50;99.90;;;;;;4974578;28;20339;-80
2023/04/27 00:05:55;;;;;;;6.10;4.57;;;4.50;99.90;;;;;;4974520;28;20220;-80
2023/04/27 00:08:22;;;;;;;4.53;3.90;;;4.50;99.90;;;;;;4974685;28;20201;-76
2023/04/27 00:10:49;;;;;;;6.37;5.03;;;4.50;99.90;;;;;;4974072;28;20200;-78
2023/04/27 00:13:16;;;;;;;5.40;4.60;;;4.40;99.90;;;;;;4973449;28;20287;-79
2023/04/27 00:15:44;;;;;;;5.10;3.87;;;4.40;99.90;;;;;;4974323;28;20292;-79
2023/04/27 00:18:11;;;;;;;6.00;4.80;;;4.40;99.90;;;;;;4973557;28;20310;-79
2023/04/27 00:20:38;;;;;;;5.03;4.43;;;4.40;99.90;;;;;;4974535;28;20205;-79
2023/04/27 00:23:07;;;;;;;5.43;4.53;;;4.30;99.90;;;;;;4973138;28;20634;-81
2023/04/27 00:25:34;;;;;;;6.60;4.10;;;4.30;99.90;;;;;;4974125;28;20215;-81
2023/04/27 00:28:01;;;;;;;4.30;3.90;;;4.30;99.90;;;;;;4974225;28;20208;-79
2023/04/27 00:30:28;;;;;;;6.07;4.27;;;4.30;99.90;;;;;;4974137;28;20228;-79
2023/04/27 00:32:55;;;;;;;6.23;4.03;;;4.30;99.90;;;;;;4973473;28;20212;-79
2023/04/27 00:35:22;;;;;;;5.93;4.87;;;4.20;99.90;;;;;;4973039;28;20284;-82
2023/04/27 00:37:49;;;;;;;7.57;5.50;;;4.20;99.90;;;;;;4974102;28;20228;-81
2023/04/27 00:40:17;;;;;;;5.60;4.87;;;4.20;99.90;;;;;;4973028;28;20200;-79
2023/04/27 00:42:44;;;;;;;6.10;4.73;;;4.20;99.90;;;;;;4973620;28;20207;-77
2023/04/27 00:45:12;;;;;;;5.50;4.50;;;4.20;99.90;;;;;;4973118;28;20320;-77
2023/04/27 00:47:39;;;;;;;5.90;4.53;;;4.20;99.90;;;;;;4972182;28;20212;-79
2023/04/27 00:50:09;;;;;;;4.80;4.17;;;4.10;99.90;;;;;;4973462;28;20307;-81
2023/04/27 00:52:36;;;;;;;7.73;5.60;;;4.10;99.90;;;;;;4972937;28;20244;-81
2023/04/27 00:55:04;;;;;;;7.20;5.83;;;4.10;99.90;;;;;;4972520;28;20201;-77
2023/04/27 00:57:33;;;;;;;7.20;4.90;;;4.00;99.90;;;;;;4972664;28;20212;-81
2023/04/27 01:00:01;;;;;;;6.93;5.30;;;3.90;99.90;;;;;;4973304;28;20205;-79
2023/04/27 01:02:29;;;;;;;5.77;4.77;;;3.90;99.90;;;;;;4973643;28;20288;-79
2023/04/27 01:04:56;;;;;;;6.63;5.23;;;3.90;99.90;;;;;;4973741;28;20327;-81
2023/04/27 01:07:25;;;;;;;5.77;4.77;;;3.90;99.90;;;;;;4972955;28;20526;-76
2023/04/27 01:09:52;;;;;;;7.37;5.20;;;3.90;99.90;;;;;;4973337;28;20659;-79
2023/04/27 01:12:19;;;;;;;4.97;4.20;;;3.90;99.90;;;;;;4972832;28;20621;-81
2023/04/27 01:14:48;;;;;;;4.80;4.20;;;3.90;99.90;;;;;;4973055;28;20200;-75
2023/04/27 01:17:15;;;;;;;5.77;4.50;;;3.90;99.90;;;;;;4973507;28;20284;-79
2023/04/27 01:19:43;;;;;;;6.00;4.80;;;3.90;99.90;;;;;;4972697;28;20200;-77
2023/04/27 01:22:10;;;;;;;5.97;4.33;;;3.80;99.90;;;;;;4972885;28;20196;-80
2023/04/27 01:24:39;;;;;;;5.40;4.13;;;3.80;99.90;;;;;;4972299;28;20294;-79
2023/04/27 01:27:06;;;;;;;5.80;4.30;;;3.80;99.90;;;;;;4973132;28;20232;-78
2023/04/27 01:29:33;;;;;;;5.13;4.07;;;3.80;99.90;;;;;;4973121;28;20217;-80
2023/04/27 01:32:00;;;;;;;4.33;3.77;;;3.70;99.90;;;;;;4973467;28;20205;-77
2023/04/27 01:34:27;;;;;;;4.93;4.43;;;3.70;99.90;;;;;;4973815;28;20291;-80
2023/04/27 01:36:54;;;;;;;5.80;4.23;;;3.70;99.90;;;;;;4972617;28;20215;-77
2023/04/27 01:39:21;;;;;;;6.53;4.53;;;3.70;99.90;;;;;;4977142;28;20222;-80
2023/04/27 01:41:49;;;;;;;4.30;3.90;;;3.70;99.90;;;;;;4976989;28;20291;-79
2023/04/27 01:44:16;;;;;;;6.03;5.07;;;3.70;99.90;;;;;;4976574;28;20196;-79
2023/04/27 01:46:43;;;;;;;5.33;4.70;;;3.70;99.90;;;;;;4977108;28;20292;-78
2023/04/27 01:49:10;;;;;;;6.17;4.33;;;3.60;99.90;;;;;;4976395;28;20193;-77
2023/04/27 01:51:37;;;;;;;6.13;4.80;;;3.60;99.90;;;;;;4977205;28;20204;-80
2023/04/27 01:54:04;;;;;;;6.30;4.70;;;3.60;99.90;;;;;;4976413;28;20268;-79
2023/04/27 01:56:31;;;;;;;4.20;3.73;;;3.60;99.90;;;;;;4976855;28;20205;-80
2023/04/27 01:58:59;;;;;;;6.23;4.80;;;3.60;99.90;;;;;;4976157;28;20303;-80
2023/04/27 02:01:26;;;;;;;5.83;5.20;;;3.60;99.90;;;;;;4975865;28;20223;-79
2023/04/27 02:03:53;;;;;;;5.23;4.73;;;3.60;99.90;;;;;;4976203;28;20331;-79
2023/04/27 02:06:21;;;;;;;5.57;4.77;;;3.50;99.90;;;;;;4976087;28;20275;-77
2023/04/27 02:08:48;;;;;;;5.17;4.63;;;3.50;99.90;;;;;;4976616;28;20212;-76
2023/04/27 02:11:14;;;;;;;6.83;5.43;;;3.50;99.90;;;;;;4976114;28;20716;-80
2023/04/27 02:13:41;;;;;;;6.80;5.10;;;3.50;99.90;;;;;;4975646;28;20295;-79
2023/04/27 02:16:10;;;;;;;6.70;5.23;;;3.50;99.90;;;;;;4976273;28;20663;-79
2023/04/27 02:18:37;;;;;;;5.53;4.77;;;3.40;99.90;;;;;;4975767;28;20200;-79
2023/04/27 02:21:09;;;;;;;5.80;4.90;;;3.40;99.90;;;;;;4976017;28;20288;-80
2023/04/27 02:23:36;;;;;;;6.63;5.20;;;3.40;99.90;;;;;;4975658;28;20616;-78
2023/04/27 02:26:03;;;;;;;7.90;5.17;;;3.40;99.90;;;;;;4975269;28;20800;-81
2023/04/27 02:28:31;;;;;;;7.27;5.40;;;3.40;99.90;;;;;;4975736;28;20590;-80
2023/04/27 02:30:57;;;;;;;7.03;6.03;;;3.40;99.90;;;;;;4975307;28;20286;-81
2023/04/27 02:33:26;;;;;;;8.00;5.70;;;3.40;99.90;;;;;;4975934;28;20273;-82
2023/04/27 02:35:53;;;;;;;6.93;6.00;;;3.30;99.90;;;;;;4975658;28;20236;-78
2023/04/27 02:38:19;;;;;;;9.33;6.00;;;3.30;99.90;;;;;;4975375;28;20208;-77
2023/04/27 02:40:46;;;;;;;8.50;6.10;;;3.30;99.90;;;;;;4975759;28;20200;-80
2023/04/27 02:43:13;;;;;;;8.27;6.33;;;3.30;99.90;;;;;;4975927;28;20291;-77
2023/04/27 02:45:40;;;;;;;8.70;6.60;;;3.30;99.90;;;;;;4975432;28;20438;-80
2023/04/27 02:48:07;;;;;;;7.93;5.50;;;3.30;99.90;;;;;;4974851;28;20215;-79
2023/04/27 02:50:41;;;;;;;7.37;5.77;;;3.20;99.90;;;;;;4973444;28;20235;-79
2023/04/27 02:53:07;;;;;;;7.73;6.13;;;3.20;99.90;;;;;;4974234;28;20289;-77
2023/04/27 02:55:34;;;;;;;8.60;6.50;;;3.20;99.90;;;;;;4974690;28;20215;-77
2023/04/27 02:58:01;;;;;;;9.10;5.97;;;3.20;99.90;;;;;;4975560;28;20200;-78
2023/04/27 03:00:28;;;;;;;6.83;5.83;;;3.20;99.90;;;;;;4974542;28;20207;-80
2023/04/27 03:02:55;;;;;;;6.67;5.63;;;3.20;99.90;;;;;;4974720;28;20219;-79
2023/04/27 03:05:27;;;;;;;6.53;5.37;;;3.10;99.90;;;;;;4975111;28;20647;-79
2023/04/27 03:07:55;;;;;;;7.13;6.00;;;3.10;99.90;;;;;;4973753;28;20613;-79
2023/04/27 03:10:22;;;;;;;8.13;6.23;;;3.10;99.90;;;;;;4974696;28;20232;-78
2023/04/27 03:12:49;;;;;;;7.87;5.67;;;3.10;99.90;;;;;;4974124;28;20203;-77
2023/04/27 03:15:16;;;;;;;7.33;5.43;;;3.10;99.90;;;;;;4973629;28;20565;-78
2023/04/27 03:17:43;;;;;;;8.07;5.23;;;3.10;99.90;;;;;;4974571;28;20207;-76
2023/04/27 03:20:11;;;;;;;7.30;5.27;;;3.10;99.90;;;;;;4974418;28;20211;-78
2023/04/27 03:22:38;;;;;;;6.67;5.83;;;3.00;99.90;;;;;;4973470;28;20566;-77
2023/04/27 03:25:07;;;;;;;8.43;6.27;;;3.00;99.90;;;;;;4975058;28;20211;-77
2023/04/27 03:27:34;;;;;;;9.17;5.50;;;3.00;99.90;;;;;;4973979;28;20201;-79
2023/04/27 03:30:01;;;;;;;7.30;5.53;;;3.00;99.90;;;;;;4973796;28;20231;-78
2023/04/27 03:32:27;;;;;;;6.97;5.57;;;3.00;99.90;;;;;;4973860;28;20204;-78
2023/04/27 03:34:55;;;;;;;8.20;6.40;;;2.90;99.90;;;;;;4974271;28;20196;-78
2023/04/27 03:37:22;;;;;;;7.20;6.07;;;2.90;99.90;;;;;;4973677;28;20625;-79
2023/04/27 03:39:49;;;;;;;7.20;5.80;;;2.90;99.90;;;;;;4973708;28;20197;-78
2023/04/27 03:42:18;;;;;;;8.17;5.87;;;2.90;99.90;;;;;;4973537;28;20196;-76
2023/04/27 03:44:44;;;;;;;7.27;6.13;;;2.90;99.90;;;;;;4974595;28;20304;-78
2023/04/27 03:47:11;;;;;;;7.47;5.77;;;2.90;99.90;;;;;;4973768;28;20754;-76
2023/04/27 03:49:38;;;;;;;8.83;5.33;;;2.80;99.90;;;;;;4973651;28;20690;-76
2023/04/27 03:52:05;;;;;;;7.27;5.97;;;2.80;99.90;;;;;;4973386;28;20232;-76
2023/04/27 03:54:32;;;;;;;8.07;6.30;;;2.80;99.90;;;;;;4973526;28;20215;-76
2023/04/27 03:57:01;;;;;;;7.13;6.00;;;2.80;99.90;;;;;;4973270;28;20614;-77
2023/04/27 03:59:30;;;;;;;7.40;6.20;;;2.80;99.90;;;;;;4973784;28;20196;-76
2023/04/27 04:01:57;;;;;;;8.53;6.47;;;2.80;99.90;;;;;;4973322;28;20295;-77
2023/04/27 04:04:24;;;;;;;7.67;6.17;;;2.80;99.90;;;;;;4972586;28;20216;-75
2023/04/27 04:06:51;;;;;;;7.77;6.60;;;2.80;99.90;;;;;;4973505;28;20212;-76
2023/04/27 04:09:18;;;;;;;7.83;6.17;;;2.80;99.90;;;;;;4973860;28;20605;-75
2023/04/27 04:11:45;;;;;;;8.77;6.63;;;2.80;99.90;;;;;;4973414;28;20844;-76
2023/04/27 04:14:12;;;;;;;7.70;6.20;;;2.80;99.90;;;;;;4973800;28;20299;-76
2023/04/27 04:16:40;;;;;;;8.80;6.53;;;2.80;99.90;;;;;;4972987;28;20589;-77
2023/04/27 04:19:07;;;;;;;7.10;5.77;;;2.70;99.90;;;;;;4973555;28;20224;-78
2023/04/27 04:21:34;;;;;;;7.67;6.03;;;2.70;99.90;;;;;;4973492;28;20200;-76
2023/04/27 04:24:01;;;;;;;8.80;6.57;;;2.70;99.90;;;;;;4972299;28;20204;-78
2023/04/27 04:26:29;;;;;;;9.37;6.10;;;2.70;99.90;;;;;;4972958;28;20482;-76
2023/04/27 04:28:57;;;;;;;8.90;6.53;;;2.70;99.90;;;;;;4972656;28;20201;-78
2023/04/27 04:31:25;;;;;;;8.77;6.60;;;2.70;99.90;;;;;;4972522;28;20326;-77
2023/04/27 04:33:53;;;;;;;8.27;6.57;;;2.70;99.90;;;;;;4972997;28;20197;-76
2023/04/27 04:36:20;;;;;;;7.90;6.50;;;2.70;99.90;;;;;;4973052;28;20205;-76
2023/04/27 04:38:47;;;;;;;7.83;6.03;;;2.70;99.90;;;;;;4974149;28;20207;-82
2023/04/27 04:41:14;;;;;;;9.07;6.63;;;2.70;99.90;;;;;;4973610;28;20245;-81
2023/04/27 04:43:41;;;;;;;9.77;7.20;;;2.70;99.90;;;;;;4974631;28;20286;-79
2023/04/27 04:46:08;;;;;;;8.57;6.17;;;2.70;99.90;;;;;;4974000;28;20493;-82
2023/04/27 04:48:35;;;;;;;10.37;7.07;;;2.70;99.90;;;;;;4974140;28;20627;-81
2023/04/27 04:51:05;;;;;;;9.30;7.13;;;2.70;99.90;;;;;;4974215;28;20631;-81
2023/04/27 04:53:32;;;;;;;9.80;7.50;;;2.70;99.90;;;;;;4973300;28;20236;-81
2023/04/27 04:56:08;;;;;;;9.20;7.53;;;2.70;99.90;;;;;;4974010;28;20609;-81
2023/04/27 04:58:35;;;;;;;10.07;7.30;;;2.80;99.90;;;;;;4974229;28;20204;-78
2023/04/27 05:01:02;;;;;;;9.00;7.17;;;2.80;99.90;;;;;;4973763;28;20192;-80
2023/04/27 05:03:29;;;;;;;10.40;7.27;;;2.80;99.90;;;;;;4973930;28;20210;-81
2023/04/27 05:05:56;;;;;;;8.87;6.57;;;2.90;99.90;;;;;;4971995;28;20588;-80
2023/04/27 05:08:24;;;;;;;12.10;7.50;;;2.90;99.90;;;;;;4973851;28;20287;-79
2023/04/27 05:10:51;;;;;;;9.67;7.17;;;2.90;99.90;;;;;;4973069;28;20232;-80
2023/04/27 05:13:18;;;;;;;10.43;7.93;;;3.00;99.90;;;;;;4976845;28;20291;-81
2023/04/27 05:15:46;;;;;;;10.27;7.63;;;3.00;99.90;;;;;;4977495;28;20208;-80
2023/04/27 05:18:13;;;;;;;8.43;6.70;;;3.10;99.90;;;;;;4977195;28;20211;-79
2023/04/27 05:20:40;;;;;;;10.23;7.30;;;3.20;99.90;;;;;;4976884;28;20197;-78
2023/04/27 05:23:07;;;;;;;9.10;6.90;;;3.30;99.90;;;;;;4977161;28;20290;-79
2023/04/27 05:25:40;;;;;;;9.60;7.20;;;3.30;99.90;;;;;;4977798;28;20643;-81
2023/04/27 05:28:07;;;;;;;11.23;6.80;;;3.40;99.90;;;;;;4977170;28;20263;-81
2023/04/27 05:30:34;;;;;;;12.43;6.87;;;3.40;99.90;;;;;;4976822;28;20311;-80
2023/04/27 05:33:01;;;;;;;9.47;6.80;;;3.50;99.90;;;;;;4978038;28;20207;-80
2023/04/27 05:35:28;;;;;;;11.57;6.77;;;3.60;99.90;;;;;;4976788;28;20288;-81
2023/04/27 05:37:55;;;;;;;12.60;6.80;;;3.80;99.90;;;;;;4977388;28;20204;-81
2023/04/27 05:40:22;;;;;;;6.87;5.53;;;3.90;99.90;;;;;;4977881;28;20205;-79
2023/04/27 05:42:50;;;;;;;10.60;6.80;;;4.00;99.90;;;;;;4976548;28;20299;-78
2023/04/27 05:45:17;;;;;;;7.10;5.47;;;4.10;99.90;;;;;;4976617;28;20213;-78
2023/04/27 05:47:44;;;;;;;7.23;5.20;;;4.20;99.90;;;;;;4977636;28;20205;-78
2023/04/27 05:50:12;;;;;;;13.63;6.47;;;4.20;99.90;;;;;;4976327;28;20316;-79
2023/04/27 05:52:38;;;;;;;10.83;5.87;;;4.40;99.90;;;;;;4977012;28;20267;-80
2023/04/27 05:55:07;;;;;;;9.80;5.07;;;4.40;99.90;;;;;;4976432;28;20203;-79
2023/04/27 05:57:34;;;;;;;7.13;5.23;;;4.60;99.90;;;;;;4976552;28;20365;-80
2023/04/27 06:00:06;;;;;;;8.70;5.27;;;4.70;99.90;;;;;;4976032;28;20204;-77
2023/04/27 06:02:33;;;;;;;8.30;4.70;;;4.80;99.90;;;;;;4976016;28;20244;-79
2023/04/27 06:04:59;;;;;;;8.20;4.63;;;5.00;99.90;;;;;;4975589;28;20509;-79
2023/04/27 06:07:26;;;;;;;6.67;4.87;;;5.10;99.90;;;;;;4975933;28;20197;-77
2023/04/27 06:09:53;;;;;;;7.60;4.50;;;5.30;99.90;;;;;;4975769;28;20288;-79
2023/04/27 06:12:20;;;;;;;10.23;4.00;;;5.40;99.90;;;;;;4976380;28;20679;-80
2023/04/27 06:14:47;;;;;;;5.73;4.00;;;5.60;99.90;;;;;;4976746;28;20287;-80
2023/04/27 06:17:15;;;;;;;5.27;3.93;;;5.70;99.90;;;;;;4976299;28;20211;-81
2023/04/27 06:19:42;;;;;;;5.53;4.27;;;5.90;99.90;;;;;;4975412;28;20292;-79
2023/04/27 06:22:10;;;;;;;6.30;3.60;;;6.00;99.90;;;;;;4976320;28;20626;-78
2023/04/27 06:24:37;;;;;;;5.97;3.90;;;6.20;99.90;;;;;;4972383;28;20323;-79
2023/04/27 06:27:04;;;;;;;7.07;4.50;;;6.30;99.90;;;;;;4975194;28;20548;-79
2023/04/27 06:29:31;;;;;;;6.37;3.73;;;6.50;99.90;;;;;;4975599;28;20600;-79
2023/04/27 06:31:58;;;;;;;9.93;3.20;;;6.70;99.90;;;;;;4975332;28;20315;-79
2023/04/27 06:34:26;;;;;;;6.67;3.63;;;6.80;99.90;;;;;;4975494;28;20300;-80
2023/04/27 06:36:53;;;;;;;6.63;3.33;;;7.00;99.90;;;;;;4975605;28;20213;-77
2023/04/27 06:39:20;;;;;;;5.40;3.40;;;7.10;99.90;;;;;;4975531;28;20211;-79
2023/04/27 06:41:47;;;;;;;4.57;3.17;;;7.30;99.90;;;;;;4976091;28;20201;-77
2023/04/27 06:44:14;;;;;;;8.67;3.97;;;7.60;99.90;;;;;;4975142;28;20311;-79
2023/04/27 06:46:40;;;;;;;4.20;3.27;;;7.80;99.90;;;;;;4975346;28;20207;-80
2023/04/27 06:49:07;;;;;;;5.90;3.90;;;8.00;1.00;;;;;;4976096;28;20233;-81
2023/04/27 06:51:36;;;;;;;5.33;3.63;;;8.10;1.00;;;;;;4975462;28;20216;-78
2023/04/27 06:54:03;;;;;;;5.60;3.43;;;8.30;1.00;;;;;;4981405;28;20247;-78
2023/04/27 06:56:29;;;;;;;7.27;3.60;;;8.50;1.00;;;;;;4975337;28;20206;-80
2023/04/27 06:58:56;;;;;;;5.13;4.17;;;8.80;1.00;;;;;;4975995;28;20287;-79
2023/04/27 07:01:26;;;;;;;5.37;3.53;;;8.90;1.00;;;;;;4975321;28;20285;-78
2023/04/27 07:03:52;;;;;;;5.00;3.50;;;9.20;99.90;;;;;;4974587;28;20211;-79
2023/04/27 07:06:21;;;;;;;5.53;3.77;;;9.50;1.00;;;;;;4974629;28;20224;-77
2023/04/27 07:08:49;;;;;;;5.27;4.00;;;9.60;1.00;;;;;;4974441;28;20301;-77
2023/04/27 07:11:16;;;;;;;6.50;3.23;;;9.80;1.00;;;;;;4974543;28;20265;-79
2023/04/27 07:13:43;;;;;;;6.50;3.43;;;10.00;1.00;;;;;;4962163;28;20204;-78
2023/04/27 07:16:10;;;;;;;5.67;3.23;;;10.10;1.00;;;;;;4974045;28;20628;-78
2023/04/27 07:18:37;;;;;;;4.10;3.20;;;10.20;1.00;;;;;;4973710;28;20288;-78
2023/04/27 07:21:04;;;;;;;3.67;3.20;;;10.50;1.00;;;;;;4972955;28;20197;-77
2023/04/27 07:23:32;;;;;;;5.30;3.50;;;10.70;99.90;;;;;;4973154;28;20236;-78
2023/04/27 07:26:00;;;;;;;4.40;3.50;;;10.70;1.00;;;;;;4973710;28;20299;-78
2023/04/27 07:28:28;;;;;;;5.97;3.50;;;10.80;99.90;;;;;;4973199;28;20205;-79
2023/04/27 07:30:56;;;;;;;4.60;3.23;;;10.80;1.00;;;;;;4973625;28;20507;-78
2023/04/27 07:33:23;;;;;;;7.17;3.37;;;11.00;99.90;;;;;;4972885;28;20223;-79
2023/04/27 07:35:52;;;;;;;7.77;4.17;;;11.20;1.00;;;;;;4938075;28;20231;-77
2023/04/27 07:38:19;;;;;;;5.50;3.23;;;11.40;1.00;;;;;;4972750;28;20568;-78
2023/04/27 07:40:46;;;;;;;6.37;3.90;;;11.80;1.00;;;;;;4973285;28;20637;-79
2023/04/27 07:43:16;;;;;;;4.40;2.60;;;12.00;99.00;;;;;;4973099;28;20207;-77
2023/04/27 07:45:44;;;;;;;5.47;2.77;;;12.20;1.00;;;;;;4961742;28;20231;-78
2023/04/27 07:48:12;;;;;;;5.80;2.80;;;12.50;1.00;;;;;;4974988;28;20228;-78
2023/04/27 07:50:39;;;;;;;3.43;2.60;;;12.40;1.00;;;;;;4978680;28;20632;-80
2023/04/27 07:53:06;;;;;;;4.67;2.83;;;12.30;1.00;;;;;;4982108;28;20263;-76
2023/04/27 07:55:33;;;;;;;4.80;2.50;;;12.30;1.00;;;;;;4979493;28;20681;-77
2023/04/27 07:58:00;;;;;;;4.47;2.27;;;12.30;1.00;;;;;;4978758;28;20799;-77
2023/04/27 08:00:28;;;;;;;4.10;2.30;;;12.40;1.00;;;;;;4975368;28;20204;-77
2023/04/27 08:02:55;;;;;;;6.07;2.47;;;12.30;1.00;;;;;;4974442;28;20199;-79
2023/04/27 08:05:22;;;;;;;5.03;2.40;;;12.40;1.00;;;;;;4973814;28;20633;-78
2023/04/27 08:07:52;;;;;;;2.77;2.00;;;12.70;90.20;;;;;;4973529;28;20514;-76
2023/04/27 08:10:19;;;;;;;3.33;1.93;;;12.90;1.00;;;;;;4972828;28;20647;-77
2023/04/27 08:12:45;;;;;;;4.33;2.13;;;13.00;1.00;;;;;;4973155;28;20593;-77
2023/04/27 08:15:13;;;;;;;3.33;1.80;;;13.00;1.00;;;;;;4973499;28;20200;-77
2023/04/27 08:17:42;;;;;;;3.43;2.17;;;13.10;1.00;;;;;;4973470;28;20307;-77
2023/04/27 08:20:11;;;;;;;7.97;2.87;;;13.00;1.00;;;;;;4973369;28;20223;-77
2023/04/27 08:22:38;;;;;;;3.00;2.10;;;13.10;1.00;;;;;;4973076;28;20207;-77
2023/04/27 08:25:06;;;;;;;3.67;2.23;;;13.30;1.00;;;;;;4972732;28;20287;-78
2023/04/27 08:27:33;;;;;;;5.23;2.20;;;13.50;1.00;;;;;;4973555;28;20593;-78
2023/04/27 08:30:00;;;;;;;4.53;2.07;;;13.80;1.00;;;;;;4973045;28;20204;-77
2023/04/27 08:32:27;;;;;;;4.47;2.40;;;14.10;1.00;;;;;;4973503;28;20216;-78
2023/04/27 08:34:56;;;;;;;4.40;2.85;;;14.10;1.00;;;;;;4972724;28;20193;-78
2023/04/27 08:37:22;;;;;;;4.33;2.50;;;14.30;1.00;;;;;;4973829;28;20210;-77
2023/04/27 08:39:49;;;;;;;4.67;2.47;;;14.30;1.00;;;;;;4972956;28;20287;-79
2023/04/27 09:10:46;;;;;;;4.43;2.70;;;15.20;1.00;;;;;;4780940;29;20299;-78
2023/04/27 09:13:13;;;;;;;4.18;2.30;;;15.00;1.00;;;;;;4891309;29;20259;-77
2023/04/27 09:15:45;;;;;;;3.80;2.55;;;15.00;99.90;;;;;;4921565;28;20598;-78
2023/04/27 09:18:19;;;;;;;5.70;2.85;;;15.00;1.00;;;;;;4951230;29;20264;-79
2023/04/27 09:20:47;;;;;;;4.28;2.55;;;14.90;99.90;;;;;;4950032;29;20815;-78
2023/04/27 09:23:26;;;;;;;3.30;2.58;;;15.00;1.00;;;;;;4950527;29;20296;-79
2023/04/27 09:25:55;;;;;;;6.38;2.30;;;15.00;1.00;;;;;;4951062;29;20209;-79
2023/04/27 09:28:22;;;;;;;3.45;2.17;;;15.10;1.00;;;;;;4950037;28;20217;-79
2023/04/27 09:30:53;;;;;;;4.22;2.35;;;15.30;99.90;;;;;;4950953;29;20252;-78
2023/04/27 09:33:24;;;;;;;3.80;2.45;;;15.40;99.90;;;;;;4951089;29;20233;-79
2023/04/27 09:35:51;;;;;;;5.85;2.75;;;15.70;99.90;;;;;;4949594;29;20202;-79
2023/04/27 09:38:19;;;;;;;4.57;2.65;;;15.90;1.00;;;;;;4950968;29;20205;-78
2023/04/27 09:40:46;;;;;;;4.10;2.45;;;16.10;99.90;;;;;;4950238;28;20658;-78
2023/04/27 09:43:15;;;;;;;3.92;2.92;;;15.70;99.90;;;;;;4965664;28;20259;-79
2023/04/27 09:45:42;;;;;;;4.30;2.40;;;15.70;1.00;;;;;;4972980;28;20505;-78
2023/04/27 09:48:10;;;;;;;5.13;3.08;;;15.70;99.90;;;;;;4971490;28;20215;-78
2023/04/27 09:50:38;;;;;;;4.60;2.75;;;15.50;1.00;;;;;;4971834;28;20216;-79
2023/04/27 09:53:08;;;;;;;2.75;2.40;;;15.60;1.00;;;;;;4972052;28;20275;-78
2023/04/27 09:55:40;;;;;;;4.40;2.80;;;15.80;1.00;;;;;;4972048;28;20201;-79
2023/04/27 09:58:25;;;;;;;5.43;2.50;;;15.60;1.00;;;;;;4973156;28;20201;-79
2023/04/27 10:01:02;;;;;;;3.05;2.28;;;15.70;99.70;;;;;;4975316;28;20296;-78
2023/04/27 10:03:38;;;;;;;3.17;2.65;;;15.70;99.90;;;;;;4975450;28;20275;-78
2023/04/27 10:06:35;;;;;;;5.43;2.88;;;15.90;99.90;;;;;;4976260;28;20251;-78
2023/04/27 10:09:04;;;;;;;5.15;3.25;;;15.80;99.90;;;;;;4967331;28;20217;-78
2023/04/27 10:11:39;;;;;;;4.93;3.28;;;15.60;1.00;;;;;;4975008;28;20220;-78
2023/04/27 10:14:09;;;;;;;3.75;2.40;;;15.70;99.90;;;;;;4975284;28;20215;-77
2023/04/27 10:16:47;;;;;;;5.75;2.88;;;15.70;56.40;;;;;;4975191;28;20256;-79
2023/04/27 10:19:14;;;;;;;5.70;2.75;;;15.30;1.00;;;;;;4975389;28;20228;-78
2023/04/27 10:21:52;;;;;;;3.60;2.92;;;15.40;4.50;;;;;;4975375;28;20273;-78
2023/04/27 10:24:19;;;;;;;5.80;2.70;;;15.20;99.90;;;;;;4955277;29;20243;-78
2023/04/27 10:26:47;;;;;;;5.05;2.67;;;15.20;99.90;;;;;;4964961;28;20221;-78
2023/04/27 10:29:17;;;;;;;6.57;2.67;;;15.20;99.90;;;;;;4975591;28;20205;-78
2023/04/27 10:31:44;;;;;;;6.63;2.90;;;15.30;1.00;;;;;;4974018;28;20628;-78
2023/04/27 10:34:16;;;;;;;3.97;3.10;;;15.40;99.90;;;;;;4975313;28;20200;-79
2023/04/27 11:38:46;;;;;;;6.07;3.25;;;16.30;1.00;;;;;;4846258;23;20247;-79
2023/04/27 11:41:13;;;;;;;7.97;3.60;;;16.60;92.50;;;;;;4993289;28;20204;-78
2023/04/27 11:43:42;;;;;;;6.88;3.75;;;16.90;1.00;;;;;;4993620;28;20196;-77
2023/04/27 11:46:11;;;;;;;6.50;3.65;;;17.10;1.00;;;;;;4992535;28;20215;-77
2023/04/27 11:48:39;;;;;;;4.38;3.05;;;17.20;99.90;;;;;;4993047;28;20251;-79
2023/04/27 11:51:07;;;;;;;6.82;3.83;;;17.40;1.00;;;;;;4992689;28;20212;-77
2023/04/27 11:53:36;;;;;;;8.00;4.05;;;17.60;1.00;;;;;;4993099;28;20304;-77
2023/04/27 11:56:07;;;;;;;5.70;3.53;;;17.80;99.90;;;;;;4978134;28;20558;-77
2023/04/27 11:58:35;;;;;;;5.05;2.80;;;18.10;1.00;;;;;;4981255;23;20243;-78
2023/04/27 12:01:03;;;;;;;4.65;3.83;;;18.00;1.00;;;;;;4973928;28;20200;-77
2023/04/27 12:03:30;;;;;;;4.30;3.40;;;18.20;49.50;;;;;;4971873;28;20247;-78
2023/04/27 12:05:57;;;;;;;6.45;3.92;;;18.50;1.00;;;;;;4971906;28;20223;-78
2023/04/27 12:08:25;;;;;;;5.07;3.90;;;18.80;99.90;;;;;;4972525;28;20295;-77
2023/04/27 12:10:52;;;;;;;9.05;4.10;;;18.80;1.00;;;;;;4972514;28;20205;-78
2023/04/27 12:13:20;;;;;;;5.28;3.60;;;18.60;1.00;;;;;;4973166;28;20502;-78
2023/04/27 12:15:47;;;;;;;6.82;4.90;;;18.50;1.00;;;;;;4971275;28;20205;-78
2023/04/27 12:18:14;;;;;;;5.22;4.10;;;18.00;99.90;;;;;;4972585;28;20212;-80
2023/04/27 12:20:40;;;;;;;5.22;4.07;;;17.70;99.90;;;;;;4971872;28;20617;-79
2023/04/27 12:23:08;;;;;;;5.72;3.42;;;17.70;1.00;;;;;;4971802;28;20203;-78
2023/04/27 12:25:35;;;;;;;3.72;3.38;;;17.90;99.90;;;;;;4973534;28;20215;-78
2023/04/27 12:28:02;;;;;;;8.10;4.13;;;18.00;1.00;;;;;;4972661;28;20657;-78
2023/04/27 12:30:30;;;;;;;5.55;4.00;;;18.10;1.00;;;;;;4972433;28;20219;-78
2023/04/27 12:32:59;;;;;;;6.32;4.45;;;18.00;99.90;;;;;;4973152;28;20481;-78
2023/04/27 12:35:26;;;;;;;4.93;4.05;;;17.70;99.90;;;;;;4973050;28;20291;-78
2023/04/27 12:37:53;;;;;;;4.53;3.97;;;17.60;74.90;;;;;;4971166;28;20209;-78
2023/04/27 12:40:22;;;;;;;5.32;4.22;;;17.40;99.90;;;;;;4971212;28;20586;-77
2023/04/27 12:42:49;;;;;;;6.30;4.40;;;17.10;99.90;;;;;;4971973;28;20212;-78
2023/04/27 12:45:16;;;;;;;6.07;4.35;;;16.90;82.60;;;;;;4971224;28;20208;-78
2023/04/27 12:47:44;;;;;;;6.15;3.97;;;17.10;95.30;;;;;;4971010;28;20213;-80
2023/04/27 12:50:11;;;;;;;5.82;4.45;;;17.20;96.00;;;;;;4971376;28;20211;-80
2023/04/27 12:52:38;;;;;;;7.28;4.18;;;17.30;99.90;;;;;;4969353;28;20346;-78
2023/04/27 12:55:06;;;;;;;7.07;4.75;;;17.30;99.90;;;;;;4973245;28;20200;-79
2023/04/27 12:57:33;;;;;;;6.15;4.35;;;16.90;99.90;;;;;;4972342;28;20236;-80
2023/04/27 13:00:01;;;;;;;6.20;4.53;;;16.80;1.00;;;;;;4972769;28;20207;-80
2023/04/27 13:02:28;;;;;;;6.57;4.05;;;16.80;1.00;;;;;;4972992;28;20204;-80
2023/04/27 13:04:56;;;;;;;4.90;4.30;;;16.70;4.50;;;;;;4990985;23;20648;-80
2023/04/27 13:07:23;;;;;;;5.68;4.70;;;16.60;12.30;;;;;;4991687;28;20204;-79
2023/04/27 13:09:50;;;;;;;4.80;4.05;;;16.70;66.40;;;;;;4991923;28;20629;-79
2023/04/27 13:12:17;;;;;;;6.47;3.90;;;16.60;1.00;;;;;;4991261;28;20210;-80
2023/04/27 13:14:45;;;;;;;7.43;4.57;;;16.70;1.00;;;;;;4990851;28;20200;-79
2023/04/27 13:17:11;;;;;;;6.75;4.50;;;16.80;7.90;;;;;;4971928;28;20565;-79
2023/04/27 13:19:38;;;;;;;6.47;4.90;;;16.90;1.00;;;;;;4972068;28;20566;-79
2023/04/27 13:22:08;;;;;;;6.40;4.65;;;16.90;1.00;;;;;;4975096;28;20200;-79
2023/04/27 13:24:35;;;;;;;5.32;4.40;;;16.80;22.00;;;;;;4992434;28;20231;-80
2023/04/27 13:27:02;;;;;;;8.27;4.20;;;16.80;1.00;;;;;;4991784;28;20279;-78
2023/04/27 13:29:29;;;;;;;5.53;3.97;;;16.80;1.00;;;;;;4990837;28;20201;-78
2023/04/27 13:31:56;;;;;;;5.45;3.90;;;17.00;1.00;;;;;;4991745;28;20310;-78
2023/04/27 13:34:23;;;;;;;5.43;4.18;;;17.10;20.40;;;;;;4993034;28;20231;-77
2023/04/27 13:36:50;;;;;;;4.18;3.63;;;16.90;96.30;;;;;;4995965;28;20215;-79
2023/04/27 13:39:20;;;;;;;7.30;3.90;;;16.60;29.00;;;;;;4988359;28;20207;-78
2023/04/27 13:41:46;;;;;;;6.95;4.05;;;16.70;1.00;;;;;;4975708;28;20213;-79
2023/04/27 13:44:13;;;;;;;7.30;4.18;;;16.60;1.00;;;;;;4977843;28;20200;-78
2023/04/27 13:46:40;;;;;;;5.60;4.15;;;16.40;17.80;;;;;;4996049;28;20794;-78
2023/04/27 13:49:07;;;;;;;4.82;4.07;;;16.30;1.00;;;;;;4995212;28;20203;-78
2023/04/27 13:51:34;;;;;;;4.55;4.13;;;16.30;1.00;;;;;;4995806;28;20211;-78
2023/04/27 13:54:01;;;;;;;6.70;3.45;;;16.20;1.00;;;;;;4993598;28;20226;-79
2023/04/27 13:56:29;;;;;;;7.60;4.93;;;16.00;1.00;;;;;;4995384;28;20219;-79
2023/04/27 13:58:56;;;;;;;7.13;4.45;;;16.00;1.00;;;;;;4991003;28;20211;-80
2023/04/27 14:01:23;;;;;;;6.40;4.22;;;16.10;1.00;;;;;;4991702;28;20224;-78
2023/04/27 14:03:50;;;;;;;5.72;4.03;;;16.20;1.00;;;;;;4991542;28;20235;-79
2023/04/27 14:06:17;;;;;;;5.07;4.07;;;16.30;1.00;;;;;;4992403;28;20327;-80
2023/04/27 14:08:44;;;;;;;7.55;4.43;;;16.50;1.00;;;;;;4994075;28;20204;-78
2023/04/27 14:11:13;;;;;;;7.28;4.25;;;16.30;18.90;;;;;;4994637;28;20210;-79
2023/04/27 14:13:41;;;;;;;6.45;4.15;;;16.30;1.00;;;;;;5009300;28;20238;-78
2023/04/27 14:16:08;;;;;;;5.28;3.80;;;16.30;1.00;;;;;;4992089;28;20216;-78
2023/04/27 14:18:35;;;;;;;6.38;4.50;;;16.30;1.00;;;;;;4992777;28;20208;-78
2023/04/27 14:21:02;;;;;;;7.88;4.47;;;16.30;1.00;;;;;;4994744;28;20212;-78
2023/04/27 14:23:30;;;;;;;6.55;4.53;;;16.20;1.00;;;;;;4993463;28;20210;-78
2023/04/27 14:25:57;;;;;;;6.53;4.00;;;16.20;1.00;;;;;;4991106;28;20295;-79
2023/04/27 14:28:24;;;;;;;5.93;4.10;;;16.00;1.00;;;;;;4994576;28;20208;-79